Terminal Aerodrome Forecast
Issued by NWS Quad Cities IA IL

Home | Current Version | Previous Version | Text Only | Print | Product List | Glossary On
Versions: 1 2 3 4 5 6 7 8 9 10 11 12 13 14 15 16 17 18 19 20 21 22 23 24
000
FTUS43 KDVN 251030 AAA
TAFDBQ
TAF AMD
KDBQ 251030Z 2511/2606 15004KT 6SM BR BKN200
     FM251500 16008KT P6SM BKN060
      TEMPO 2515/2517 5SM -TSRA BKN035CB
     FM252100 18010KT 6SM -SHRA VCTS BKN040CB
     FM260100 16007KT P6SM BKN040=

USA.gov is the U.S. government's official web portal to all federal, state and local government web resources and services.